Cleveland, Mississippi
Current Conditions -  °F | °C
As of 1:35 AM on Wednesday 22 Oct 2014 (Local Time) from KRNV Reporting Station
Haze Haze  
Wind Chill: 55°   Ceiling: 700
Heat Index: 55°   Visibility: 1.5mi
Dew Point: 51°   Wind: 3mph
Humidity: 86%   Direction: 360°N
Pressure: 30.08"   Gusts: NA
Location:  33.75°N, 90.72°W
Report Text: KRNV 220635Z AUTO 36003KT 1 1/2SM BR VV007 13/11 A3008 RMK AO2 T01290106
Loading
Personal Weather Stations






























Interactive Weather Map
Tropical Storm Tracking
New forecast layout! Learn more

10-Day Weather Forecast

Advertisements
Track Severe Weather on mobile